sensor_id;sensor_type;location;lat;lon;timestamp;pressure;altitude;pressure_sealevel;temperature;humidity
25855;BME280;13680;49.936;11.344;2024-02-26T00:01:27;95148.66;;;4.68;73.62
25855;BME280;13680;49.936;11.344;2024-02-26T00:03:52;95143.09;;;4.79;73.28
25855;BME280;13680;49.936;11.344;2024-02-26T00:06:18;95139.94;;;4.77;73.06
25855;BME280;13680;49.936;11.344;2024-02-26T00:08:45;95138.53;;;4.56;74.28
25855;BME280;13680;49.936;11.344;2024-02-26T00:11:10;95135.47;;;4.86;73.23
25855;BME280;13680;49.936;11.344;2024-02-26T00:13:36;95135.38;;;4.77;73.07
25855;BME280;13680;49.936;11.344;2024-02-26T00:16:03;95130.69;;;4.74;72.66
25855;BME280;13680;49.936;11.344;2024-02-26T00:18:28;95126.97;;;4.61;73.58
25855;BME280;13680;49.936;11.344;2024-02-26T00:20:54;95131.13;;;4.90;72.75
25855;BME280;13680;49.936;11.344;2024-02-26T00:23:19;95122.13;;;4.86;72.88
25855;BME280;13680;49.936;11.344;2024-02-26T00:25:44;95126.38;;;4.87;72.67
25855;BME280;13680;49.936;11.344;2024-02-26T00:28:10;95118.88;;;4.66;72.88
25855;BME280;13680;49.936;11.344;2024-02-26T00:30:35;95122.19;;;4.72;72.96
25855;BME280;13680;49.936;11.344;2024-02-26T00:33:01;95120.91;;;4.69;72.99
25855;BME280;13680;49.936;11.344;2024-02-26T00:35:26;95115.59;;;4.92;72.22
25855;BME280;13680;49.936;11.344;2024-02-26T00:37:52;95111.50;;;4.86;72.42
25855;BME280;13680;49.936;11.344;2024-02-26T00:40:18;95109.06;;;4.75;72.72
25855;BME280;13680;49.936;11.344;2024-02-26T00:42:43;95109.44;;;4.83;72.76
25855;BME280;13680;49.936;11.344;2024-02-26T00:45:11;95109.94;;;4.85;72.50
25855;BME280;13680;49.936;11.344;2024-02-26T00:47:37;95108.66;;;4.82;72.06
25855;BME280;13680;49.936;11.344;2024-02-26T00:50:02;95101.44;;;5.05;71.42
25855;BME280;13680;49.936;11.344;2024-02-26T00:52:28;95100.56;;;4.87;72.16
25855;BME280;13680;49.936;11.344;2024-02-26T00:54:53;95104.44;;;5.13;71.43
25855;BME280;13680;49.936;11.344;2024-02-26T00:57:19;95103.31;;;5.05;71.38
25855;BME280;13680;49.936;11.344;2024-02-26T00:59:44;95098.91;;;5.00;71.53
25855;BME280;13680;49.936;11.344;2024-02-26T01:02:10;95100.47;;;5.01;71.32
25855;BME280;13680;49.936;11.344;2024-02-26T01:04:35;95094.84;;;5.03;71.21
25855;BME280;13680;49.936;11.344;2024-02-26T01:07:00;95103.72;;;5.21;70.78
25855;BME280;13680;49.936;11.344;2024-02-26T01:09:25;95098.53;;;5.16;70.67
25855;BME280;13680;49.936;11.344;2024-02-26T01:11:51;95094.28;;;5.15;70.60
25855;BME280;13680;49.936;11.344;2024-02-26T01:14:16;95094.22;;;5.06;70.76
25855;BME280;13680;49.936;11.344;2024-02-26T01:16:41;95100.56;;;5.19;69.82
25855;BME280;13680;49.936;11.344;2024-02-26T01:19:07;95098.44;;;5.30;69.35
25855;BME280;13680;49.936;11.344;2024-02-26T01:21:32;95091.66;;;5.23;70.16
25855;BME280;13680;49.936;11.344;2024-02-26T01:23:57;95099.00;;;5.18;70.29
25855;BME280;13680;49.936;11.344;2024-02-26T01:26:23;95088.53;;;4.99;70.97
25855;BME280;13680;49.936;11.344;2024-02-26T01:28:48;95101.25;;;5.02;70.57
25855;BME280;13680;49.936;11.344;2024-02-26T01:31:14;95094.78;;;5.17;70.34
25855;BME280;13680;49.936;11.344;2024-02-26T01:33:39;95099.63;;;5.15;69.70
25855;BME280;13680;49.936;11.344;2024-02-26T01:36:04;95093.31;;;5.11;70.06
25855;BME280;13680;49.936;11.344;2024-02-26T01:38:30;95087.69;;;5.12;70.22
25855;BME280;13680;49.936;11.344;2024-02-26T01:40:55;95088.97;;;5.15;70.20
25855;BME280;13680;49.936;11.344;2024-02-26T01:43:20;95081.09;;;5.10;70.65
25855;BME280;13680;49.936;11.344;2024-02-26T01:45:46;95087.06;;;5.15;69.79
25855;BME280;13680;49.936;11.344;2024-02-26T01:48:12;95095.03;;;5.06;70.39
25855;BME280;13680;49.936;11.344;2024-02-26T01:50:37;95093.19;;;5.16;70.33
25855;BME280;13680;49.936;11.344;2024-02-26T01:53:03;95086.91;;;5.12;69.76
25855;BME280;13680;49.936;11.344;2024-02-26T01:55:29;95101.78;;;5.13;70.20
25855;BME280;13680;49.936;11.344;2024-02-26T01:57:55;95095.47;;;5.31;69.55
25855;BME280;13680;49.936;11.344;2024-02-26T02:00:21;95102.31;;;5.23;69.55
25855;BME280;13680;49.936;11.344;2024-02-26T02:02:48;95100.19;;;5.03;69.95
25855;BME280;13680;49.936;11.344;2024-02-26T02:05:15;95102.91;;;5.12;69.67
25855;BME280;13680;49.936;11.344;2024-02-26T02:07:43;95100.25;;;5.12;69.93
25855;BME280;13680;49.936;11.344;2024-02-26T02:10:09;95101.91;;;5.07;69.96
25855;BME280;13680;49.936;11.344;2024-02-26T02:12:35;95093.19;;;5.16;69.56
25855;BME280;13680;49.936;11.344;2024-02-26T02:15:01;95095.38;;;4.91;70.54
25855;BME280;13680;49.936;11.344;2024-02-26T02:17:27;95095.31;;;5.05;69.98
25855;BME280;13680;49.936;11.344;2024-02-26T02:19:53;95092.47;;;5.01;70.07
25855;BME280;13680;49.936;11.344;2024-02-26T02:22:18;95092.06;;;5.08;69.83
25855;BME280;13680;49.936;11.344;2024-02-26T02:24:45;95099.75;;;5.10;70.27
25855;BME280;13680;49.936;11.344;2024-02-26T02:27:10;95092.44;;;4.93;70.53
25855;BME280;13680;49.936;11.344;2024-02-26T02:29:36;95085.97;;;4.85;71.20
25855;BME280;13680;49.936;11.344;2024-02-26T02:32:03;95085.84;;;4.90;70.68
25855;BME280;13680;49.936;11.344;2024-02-26T02:34:29;95084.28;;;4.89;70.78
25855;BME280;13680;49.936;11.344;2024-02-26T02:36:55;95077.25;;;4.70;72.24
25855;BME280;13680;49.936;11.344;2024-02-26T02:39:20;95076.28;;;4.66;72.18
25855;BME280;13680;49.936;11.344;2024-02-26T02:41:46;95081.03;;;4.55;72.78
25855;BME280;13680;49.936;11.344;2024-02-26T02:44:11;95076.41;;;4.84;72.23
25855;BME280;13680;49.936;11.344;2024-02-26T02:46:37;95084.50;;;4.56;72.71
25855;BME280;13680;49.936;11.344;2024-02-26T02:49:02;95081.72;;;4.84;72.26
25855;BME280;13680;49.936;11.344;2024-02-26T02:51:28;95087.81;;;4.62;73.27
25855;BME280;13680;49.936;11.344;2024-02-26T02:53:53;95082.19;;;4.86;72.76
25855;BME280;13680;49.936;11.344;2024-02-26T02:56:19;95087.53;;;4.86;72.37
25855;BME280;13680;49.936;11.344;2024-02-26T02:58:44;95084.41;;;4.84;73.08
25855;BME280;13680;49.936;11.344;2024-02-26T03:01:10;95086.94;;;4.89;72.83
25855;BME280;13680;49.936;11.344;2024-02-26T03:03:35;95087.94;;;5.02;72.66
25855;BME280;13680;49.936;11.344;2024-02-26T03:06:02;95084.84;;;4.86;73.24
25855;BME280;13680;49.936;11.344;2024-02-26T03:08:28;95088.47;;;5.13;72.49
25855;BME280;13680;49.936;11.344;2024-02-26T03:10:53;95089.94;;;4.96;73.31
25855;BME280;13680;49.936;11.344;2024-02-26T03:13:19;95092.78;;;4.77;74.48
25855;BME280;13680;49.936;11.344;2024-02-26T03:15:44;95097.28;;;4.68;75.07
25855;BME280;13680;49.936;11.344;2024-02-26T03:18:09;95091.28;;;4.62;75.61
25855;BME280;13680;49.936;11.344;2024-02-26T03:20:35;95089.97;;;4.73;75.11
25855;BME280;13680;49.936;11.344;2024-02-26T03:23:00;95085.84;;;4.90;74.16
25855;BME280;13680;49.936;11.344;2024-02-26T03:25:25;95080.41;;;4.72;75.38
25855;BME280;13680;49.936;11.344;2024-02-26T03:27:51;95072.81;;;4.88;75.01
25855;BME280;13680;49.936;11.344;2024-02-26T03:30:16;95084.91;;;4.72;75.35
25855;BME280;13680;49.936;11.344;2024-02-26T03:32:41;95080.84;;;4.97;75.11
25855;BME280;13680;49.936;11.344;2024-02-26T03:35:07;95088.06;;;5.19;73.83
25855;BME280;13680;49.936;11.344;2024-02-26T03:37:33;95093.19;;;5.16;73.93
25855;BME280;13680;49.936;11.344;2024-02-26T03:39:58;95093.88;;;5.30;72.96
25855;BME280;13680;49.936;11.344;2024-02-26T03:42:24;95100.78;;;5.31;72.92
25855;BME280;13680;49.936;11.344;2024-02-26T03:44:49;95100.16;;;5.34;72.75
25855;BME280;13680;49.936;11.344;2024-02-26T03:47:15;95088.75;;;5.34;72.86
25855;BME280;13680;49.936;11.344;2024-02-26T03:49:41;95098.63;;;5.33;72.71
25855;BME280;13680;49.936;11.344;2024-02-26T03:52:06;95094.75;;;5.48;72.55
25855;BME280;13680;49.936;11.344;2024-02-26T03:54:32;95094.41;;;5.41;72.13
25855;BME280;13680;49.936;11.344;2024-02-26T03:56:57;95086.44;;;5.50;71.86
25855;BME280;13680;49.936;11.344;2024-02-26T03:59:23;95084.34;;;5.38;72.59
25855;BME280;13680;49.936;11.344;2024-02-26T04:01:50;95084.09;;;5.48;72.80
25855;BME280;13680;49.936;11.344;2024-02-26T04:04:15;95072.25;;;5.32;72.97
25855;BME280;13680;49.936;11.344;2024-02-26T04:06:44;95079.34;;;5.36;73.43
25855;BME280;13680;49.936;11.344;2024-02-26T04:09:10;95078.69;;;5.31;73.15
25855;BME280;13680;49.936;11.344;2024-02-26T04:11:36;95077.25;;;5.24;74.12
25855;BME280;13680;49.936;11.344;2024-02-26T04:14:01;95082.72;;;5.19;74.47
25855;BME280;13680;49.936;11.344;2024-02-26T04:16:28;95087.13;;;5.24;74.21
25855;BME280;13680;49.936;11.344;2024-02-26T04:18:53;95080.06;;;5.19;74.62
25855;BME280;13680;49.936;11.344;2024-02-26T04:21:19;95082.31;;;5.35;74.33
25855;BME280;13680;49.936;11.344;2024-02-26T04:23:45;95081.22;;;5.04;75.48
25855;BME280;13680;49.936;11.344;2024-02-26T04:26:10;95071.22;;;5.41;73.94
25855;BME280;13680;49.936;11.344;2024-02-26T04:28:35;95082.22;;;5.17;74.58
25855;BME280;13680;49.936;11.344;2024-02-26T04:31:01;95082.63;;;5.33;74.53
25855;BME280;13680;49.936;11.344;2024-02-26T04:33:27;95078.25;;;5.37;74.50
25855;BME280;13680;49.936;11.344;2024-02-26T04:35:52;95087.25;;;5.19;74.52
25855;BME280;13680;49.936;11.344;2024-02-26T04:38:18;95085.91;;;5.30;74.83
25855;BME280;13680;49.936;11.344;2024-02-26T04:40:44;95090.41;;;5.21;75.40
25855;BME280;13680;49.936;11.344;2024-02-26T04:43:09;95085.22;;;5.16;75.81
25855;BME280;13680;49.936;11.344;2024-02-26T04:45:34;95099.44;;;5.43;74.62
25855;BME280;13680;49.936;11.344;2024-02-26T04:48:00;95099.84;;;5.27;74.32
25855;BME280;13680;49.936;11.344;2024-02-26T04:50:25;95100.31;;;5.29;74.61
25855;BME280;13680;49.936;11.344;2024-02-26T04:52:50;95104.56;;;5.30;73.95
25855;BME280;13680;49.936;11.344;2024-02-26T04:55:16;95107.91;;;5.45;73.42
25855;BME280;13680;49.936;11.344;2024-02-26T04:57:42;95104.09;;;5.37;73.37
25855;BME280;13680;49.936;11.344;2024-02-26T05:00:08;95094.56;;;5.45;73.46
25855;BME280;13680;49.936;11.344;2024-02-26T05:02:35;95091.25;;;5.39;73.32
25855;BME280;13680;49.936;11.344;2024-02-26T05:05:07;95095.72;;;5.21;74.32
25855;BME280;13680;49.936;11.344;2024-02-26T05:07:33;95090.91;;;5.00;75.46
25855;BME280;13680;49.936;11.344;2024-02-26T05:09:59;95093.19;;;5.16;74.82
25855;BME280;13680;49.936;11.344;2024-02-26T05:12:24;95101.09;;;4.75;75.90
25855;BME280;13680;49.936;11.344;2024-02-26T05:14:49;95108.03;;;5.08;75.01
25855;BME280;13680;49.936;11.344;2024-02-26T05:17:15;95103.31;;;5.05;75.25
25855;BME280;13680;49.936;11.344;2024-02-26T05:19:40;95113.91;;;4.96;75.60
25855;BME280;13680;49.936;11.344;2024-02-26T05:22:05;95113.56;;;5.12;74.44
25855;BME280;13680;49.936;11.344;2024-02-26T05:24:31;95113.94;;;5.28;73.93
25855;BME280;13680;49.936;11.344;2024-02-26T05:26:56;95112.53;;;5.30;73.83
25855;BME280;13680;49.936;11.344;2024-02-26T05:29:21;95110.97;;;5.29;73.63
25855;BME280;13680;49.936;11.344;2024-02-26T05:31:47;95111.91;;;5.24;74.08
25855;BME280;13680;49.936;11.344;2024-02-26T05:34:12;95108.31;;;5.29;73.72
25855;BME280;13680;49.936;11.344;2024-02-26T05:36:37;95103.72;;;5.21;73.91
25855;BME280;13680;49.936;11.344;2024-02-26T05:39:03;95098.84;;;5.14;74.02
25855;BME280;13680;49.936;11.344;2024-02-26T05:41:29;95102.91;;;5.12;75.17
25855;BME280;13680;49.936;11.344;2024-02-26T05:43:54;95110.69;;;5.31;73.87
25855;BME280;13680;49.936;11.344;2024-02-26T05:46:20;95105.06;;;5.10;75.27
25855;BME280;13680;49.936;11.344;2024-02-26T05:48:51;95102.47;;;5.18;75.14
25855;BME280;13680;49.936;11.344;2024-02-26T05:51:16;95113.69;;;5.06;75.74
25855;BME280;13680;49.936;11.344;2024-02-26T05:53:42;95120.28;;;5.09;75.62
25855;BME280;13680;49.936;11.344;2024-02-26T05:56:07;95120.09;;;5.05;75.81
25855;BME280;13680;49.936;11.344;2024-02-26T05:58:33;95117.91;;;5.07;76.06
25855;BME280;13680;49.936;11.344;2024-02-26T06:00:58;95120.84;;;5.29;75.26
25855;BME280;13680;49.936;11.344;2024-02-26T06:03:25;95123.34;;;5.25;75.03
25855;BME280;13680;49.936;11.344;2024-02-26T06:05:50;95123.88;;;5.36;75.13
25855;BME280;13680;49.936;11.344;2024-02-26T06:08:15;95132.59;;;5.28;75.01
25855;BME280;13680;49.936;11.344;2024-02-26T06:10:41;95132.03;;;5.39;74.07
25855;BME280;13680;49.936;11.344;2024-02-26T06:13:06;95139.88;;;5.36;74.85
25855;BME280;13680;49.936;11.344;2024-02-26T06:15:31;95140.38;;;5.47;74.63
25855;BME280;13680;49.936;11.344;2024-02-26T06:17:57;95146.34;;;5.44;74.85
25855;BME280;13680;49.936;11.344;2024-02-26T06:20:22;95144.03;;;5.60;73.75
25855;BME280;13680;49.936;11.344;2024-02-26T06:22:47;95149.41;;;5.68;73.26
25855;BME280;13680;49.936;11.344;2024-02-26T06:25:13;95140.19;;;5.74;73.43
25855;BME280;13680;49.936;11.344;2024-02-26T06:27:38;95143.13;;;5.33;74.77
25855;BME280;13680;49.936;11.344;2024-02-26T06:30:04;95139.00;;;5.27;74.89
25855;BME280;13680;49.936;11.344;2024-02-26T06:32:29;95139.44;;;5.43;74.59
25855;BME280;13680;49.936;11.344;2024-02-26T06:34:55;95139.31;;;5.25;75.21
25855;BME280;13680;49.936;11.344;2024-02-26T06:37:21;95131.31;;;5.25;75.95
25855;BME280;13680;49.936;11.344;2024-02-26T06:39:46;95136.41;;;5.13;76.53
25855;BME280;13680;49.936;11.344;2024-02-26T06:42:11;95131.34;;;5.02;76.88
25855;BME280;13680;49.936;11.344;2024-02-26T06:44:37;95134.88;;;4.89;77.53
25855;BME280;13680;49.936;11.344;2024-02-26T06:47:02;95130.06;;;5.00;76.97
25855;BME280;13680;49.936;11.344;2024-02-26T06:49:28;95134.06;;;5.11;77.04
25855;BME280;13680;49.936;11.344;2024-02-26T06:51:53;95143.94;;;5.11;76.66
25855;BME280;13680;49.936;11.344;2024-02-26T06:54:19;95133.78;;;5.44;75.96
25855;BME280;13680;49.936;11.344;2024-02-26T06:56:44;95142.09;;;5.43;75.34
25855;BME280;13680;49.936;11.344;2024-02-26T06:59:10;95135.06;;;5.24;76.16
25855;BME280;13680;49.936;11.344;2024-02-26T07:01:35;95136.41;;;5.67;75.16
25855;BME280;13680;49.936;11.344;2024-02-26T07:04:00;95144.50;;;5.53;74.91
25855;BME280;13680;49.936;11.344;2024-02-26T07:06:27;95146.84;;;5.54;75.60
25855;BME280;13680;49.936;11.344;2024-02-26T07:08:53;95155.00;;;5.89;74.47
25855;BME280;13680;49.936;11.344;2024-02-26T07:11:19;95160.03;;;5.91;73.80
25855;BME280;13680;49.936;11.344;2024-02-26T07:13:45;95162.56;;;5.96;73.64
25855;BME280;13680;49.936;11.344;2024-02-26T07:16:11;95170.66;;;6.14;73.10
25855;BME280;13680;49.936;11.344;2024-02-26T07:18:36;95181.81;;;5.93;72.73
25855;BME280;13680;49.936;11.344;2024-02-26T07:21:03;95184.44;;;6.16;72.90
25855;BME280;13680;49.936;11.344;2024-02-26T07:23:29;95188.28;;;6.32;72.43
25855;BME280;13680;49.936;11.344;2024-02-26T07:25:54;95188.28;;;6.41;71.66
25855;BME280;13680;49.936;11.344;2024-02-26T07:28:20;95183.28;;;6.48;71.22
25855;BME280;13680;49.936;11.344;2024-02-26T07:30:45;95178.84;;;6.35;70.97
25855;BME280;13680;49.936;11.344;2024-02-26T07:33:10;95190.50;;;6.48;71.25
25855;BME280;13680;49.936;11.344;2024-02-26T07:35:36;95186.41;;;6.42;71.37
25855;BME280;13680;49.936;11.344;2024-02-26T07:38:04;95187.81;;;6.48;71.01
25855;BME280;13680;49.936;11.344;2024-02-26T07:40:29;95188.63;;;6.66;70.54
25855;BME280;13680;49.936;11.344;2024-02-26T07:42:54;95187.81;;;6.48;70.90
25855;BME280;13680;49.936;11.344;2024-02-26T07:45:21;95187.22;;;6.51;70.96
25855;BME280;13680;49.936;11.344;2024-02-26T07:47:47;95190.63;;;6.43;70.84
25855;BME280;13680;49.936;11.344;2024-02-26T07:50:12;95197.22;;;6.36;71.21
25855;BME280;13680;49.936;11.344;2024-02-26T07:52:38;95205.94;;;6.11;72.08
25855;BME280;13680;49.936;11.344;2024-02-26T07:55:04;95210.16;;;6.69;70.53
25855;BME280;13680;49.936;11.344;2024-02-26T07:57:30;95204.97;;;6.64;70.11
25855;BME280;13680;49.936;11.344;2024-02-26T07:59:55;95205.47;;;6.66;70.34
25855;BME280;13680;49.936;11.344;2024-02-26T08:02:21;95212.69;;;6.75;69.52
25855;BME280;13680;49.936;11.344;2024-02-26T08:04:47;95215.69;;;6.82;69.20
25855;BME280;13680;49.936;11.344;2024-02-26T08:07:12;95214.41;;;6.70;69.87
25855;BME280;13680;49.936;11.344;2024-02-26T08:09:37;95226.88;;;6.84;69.62
25855;BME280;13680;49.936;11.344;2024-02-26T08:12:04;95233.44;;;6.95;68.84
25855;BME280;13680;49.936;11.344;2024-02-26T08:14:30;95228.09;;;6.95;68.78
25855;BME280;13680;49.936;11.344;2024-02-26T08:16:57;95230.66;;;7.00;68.31
25855;BME280;13680;49.936;11.344;2024-02-26T08:19:22;95231.75;;;7.08;67.97
25855;BME280;13680;49.936;11.344;2024-02-26T08:21:48;95226.09;;;7.10;68.30
25855;BME280;13680;49.936;11.344;2024-02-26T08:24:13;95228.09;;;6.95;68.98
25855;BME280;13680;49.936;11.344;2024-02-26T08:26:38;95217.75;;;7.20;67.73
25855;BME280;13680;49.936;11.344;2024-02-26T08:29:04;95221.03;;;7.17;67.90
25855;BME280;13680;49.936;11.344;2024-02-26T08:31:29;95217.91;;;7.24;67.45
25855;BME280;13680;49.936;11.344;2024-02-26T08:33:55;95214.59;;;7.35;67.24
25855;BME280;13680;49.936;11.344;2024-02-26T08:36:20;95225.13;;;7.49;66.93
25855;BME280;13680;49.936;11.344;2024-02-26T08:38:46;95219.78;;;7.32;66.95
25855;BME280;13680;49.936;11.344;2024-02-26T08:41:11;95228.44;;;7.20;68.22
25855;BME280;13680;49.936;11.344;2024-02-26T08:43:36;95215.34;;;7.62;66.99
25855;BME280;13680;49.936;11.344;2024-02-26T08:46:02;95221.91;;;7.82;66.20
25855;BME280;13680;49.936;11.344;2024-02-26T08:48:28;95220.81;;;7.75;66.03
25855;BME280;13680;49.936;11.344;2024-02-26T08:50:53;95217.47;;;7.86;65.45
25855;BME280;13680;49.936;11.344;2024-02-26T08:53:19;95219.81;;;7.88;65.04
25855;BME280;13680;49.936;11.344;2024-02-26T08:55:45;95218.22;;;7.96;64.88
25855;BME280;13680;49.936;11.344;2024-02-26T08:58:11;95221.78;;;8.09;64.23
25855;BME280;13680;49.936;11.344;2024-02-26T09:00:36;95214.31;;;8.32;64.04
25855;BME280;13680;49.936;11.344;2024-02-26T09:03:01;95221.19;;;8.42;63.61
25855;BME280;13680;49.936;11.344;2024-02-26T09:05:26;95222.16;;;8.46;62.85
25855;BME280;13680;49.936;11.344;2024-02-26T09:07:52;95219.47;;;8.46;63.76
25855;BME280;13680;49.936;11.344;2024-02-26T09:10:17;95223.34;;;8.57;62.99
25855;BME280;13680;49.936;11.344;2024-02-26T09:12:43;95223.81;;;8.59;62.85
25855;BME280;13680;49.936;11.344;2024-02-26T09:15:08;95226.53;;;8.80;61.39
25855;BME280;13680;49.936;11.344;2024-02-26T09:17:34;95235.28;;;9.11;61.38
25855;BME280;13680;49.936;11.344;2024-02-26T09:19:59;95230.47;;;9.25;60.74
25855;BME280;13680;49.936;11.344;2024-02-26T09:22:25;95236.84;;;9.12;60.10
25855;BME280;13680;49.936;11.344;2024-02-26T09:24:50;95229.06;;;9.40;60.26
25855;BME280;13680;49.936;11.344;2024-02-26T09:27:17;95226.75;;;9.51;60.69
25855;BME280;13680;49.936;11.344;2024-02-26T09:29:42;95226.22;;;9.58;59.08
25855;BME280;13680;49.936;11.344;2024-02-26T09:32:08;95229.28;;;9.69;59.86
25855;BME280;13680;49.936;11.344;2024-02-26T09:34:33;95238.44;;;9.68;59.86
25855;BME280;13680;49.936;11.344;2024-02-26T09:36:59;95235.09;;;9.71;59.73
25855;BME280;13680;49.936;11.344;2024-02-26T09:39:25;95235.38;;;9.90;58.65
25855;BME280;13680;49.936;11.344;2024-02-26T09:41:51;95238.72;;;9.87;58.86
25855;BME280;13680;49.936;11.344;2024-02-26T09:44:18;95232.28;;;10.25;57.02
25855;BME280;13680;49.936;11.344;2024-02-26T09:46:47;95233.72;;;9.98;58.99
25855;BME280;13680;49.936;11.344;2024-02-26T09:49:13;95226.19;;;10.37;57.78
25855;BME280;13680;49.936;11.344;2024-02-26T09:51:40;95240.47;;;10.29;58.55
25855;BME280;13680;49.936;11.344;2024-02-26T09:54:07;95247.00;;;10.53;57.39
25855;BME280;13680;49.936;11.344;2024-02-26T09:56:34;95243.34;;;9.99;57.96
25855;BME280;13680;49.936;11.344;2024-02-26T09:59:00;95244.16;;;10.24;57.60
25855;BME280;13680;49.936;11.344;2024-02-26T10:01:28;95238.81;;;10.37;57.37
25855;BME280;13680;49.936;11.344;2024-02-26T10:03:59;95240.84;;;10.64;56.58
25855;BME280;13680;49.936;11.344;2024-02-26T10:06:27;95243.66;;;10.68;55.61
25855;BME280;13680;49.936;11.344;2024-02-26T10:08:53;95247.09;;;10.69;55.03
25855;BME280;13680;49.936;11.344;2024-02-26T10:11:20;95237.38;;;10.64;55.22
25855;BME280;13680;49.936;11.344;2024-02-26T10:13:45;95253.63;;;10.55;55.58
25855;BME280;13680;49.936;11.344;2024-02-26T10:16:11;95255.16;;;10.93;55.18
25855;BME280;13680;49.936;11.344;2024-02-26T10:18:47;95247.19;;;11.38;53.58
25855;BME280;13680;49.936;11.344;2024-02-26T10:21:12;95255.72;;;11.40;53.42
25855;BME280;13680;49.936;11.344;2024-02-26T10:23:39;95247.94;;;11.51;52.95
25855;BME280;13680;49.936;11.344;2024-02-26T10:26:04;95248.53;;;11.44;52.75
25855;BME280;13680;49.936;11.344;2024-02-26T10:28:30;95254.13;;;11.51;51.98
25855;BME280;13680;49.936;11.344;2024-02-26T10:30:55;95250.97;;;11.49;52.76
25855;BME280;13680;49.936;11.344;2024-02-26T10:33:21;95254.16;;;11.39;52.75
25855;BME280;13680;49.936;11.344;2024-02-26T10:35:47;95252.69;;;11.70;51.74
25855;BME280;13680;49.936;11.344;2024-02-26T10:38:13;95262.19;;;11.51;51.44
25855;BME280;13680;49.936;11.344;2024-02-26T10:40:38;95267.31;;;11.85;50.79
25855;BME280;13680;49.936;11.344;2024-02-26T10:43:04;95262.13;;;11.92;51.08
25855;BME280;13680;49.936;11.344;2024-02-26T10:45:29;95257.59;;;11.80;51.62
25855;BME280;13680;49.936;11.344;2024-02-26T10:47:54;95264.41;;;11.61;52.76
25855;BME280;13680;49.936;11.344;2024-02-26T10:50:20;95257.25;;;11.82;51.35
25855;BME280;13680;49.936;11.344;2024-02-26T10:52:45;95259.06;;;11.49;52.02
25855;BME280;13680;49.936;11.344;2024-02-26T10:55:15;95265.53;;;11.60;52.88
25855;BME280;13680;49.936;11.344;2024-02-26T10:57:44;95266.47;;;11.52;52.25
25855;BME280;13680;49.936;11.344;2024-02-26T11:00:11;95262.09;;;12.20;51.22
25855;BME280;13680;49.936;11.344;2024-02-26T11:02:40;95255.72;;;11.97;50.96
25855;BME280;13680;49.936;11.344;2024-02-26T11:05:07;95255.78;;;11.84;51.08
25855;BME280;13680;49.936;11.344;2024-02-26T11:07:34;95254.88;;;12.56;50.11
25855;BME280;13680;49.936;11.344;2024-02-26T11:10:01;95252.13;;;12.37;49.82
25855;BME280;13680;49.936;11.344;2024-02-26T11:12:32;95260.56;;;12.35;48.79
25855;BME280;13680;49.936;11.344;2024-02-26T11:14:59;95256.75;;;12.36;49.66
25855;BME280;13680;49.936;11.344;2024-02-26T11:17:27;95251.25;;;12.49;48.23
25855;BME280;13680;49.936;11.344;2024-02-26T11:19:56;95259.69;;;12.47;49.22
25855;BME280;13680;49.936;11.344;2024-02-26T11:22:26;95255.69;;;12.25;48.51
25855;BME280;13680;49.936;11.344;2024-02-26T11:24:53;95252.91;;;12.37;48.96
25855;BME280;13680;49.936;11.344;2024-02-26T11:27:21;95259.16;;;12.25;48.92
25855;BME280;13680;49.936;11.344;2024-02-26T11:29:50;95259.50;;;12.40;49.02
25855;BME280;13680;49.936;11.344;2024-02-26T11:32:17;95257.75;;;12.48;49.20
25855;BME280;13680;49.936;11.344;2024-02-26T11:34:43;95254.56;;;12.42;49.31
25855;BME280;13680;49.936;11.344;2024-02-26T11:37:11;95255.53;;;12.34;48.69
25855;BME280;13680;49.936;11.344;2024-02-26T11:39:37;95248.91;;;12.31;49.20
25855;BME280;13680;49.936;11.344;2024-02-26T11:42:07;95242.97;;;12.57;48.41
25855;BME280;13680;49.936;11.344;2024-02-26T11:44:33;95244.63;;;12.46;48.73
25855;BME280;13680;49.936;11.344;2024-02-26T11:47:09;95245.88;;;12.33;49.60
25855;BME280;13680;49.936;11.344;2024-02-26T11:49:35;95247.44;;;12.34;50.13
25855;BME280;13680;49.936;11.344;2024-02-26T11:52:00;95246.22;;;12.47;49.62
25855;BME280;13680;49.936;11.344;2024-02-26T11:54:45;95254.31;;;12.31;50.40
25855;BME280;13680;49.936;11.344;2024-02-26T11:57:28;95249.03;;;11.90;51.55
25855;BME280;13680;49.936;11.344;2024-02-26T12:00:12;95256.63;;;12.01;50.81
25855;BME280;13680;49.936;11.344;2024-02-26T12:02:45;95255.16;;;12.35;51.14
25855;BME280;13680;49.936;11.344;2024-02-26T12:05:21;95256.81;;;12.40;51.08
25855;BME280;13680;49.936;11.344;2024-02-26T12:07:59;95267.16;;;12.22;50.16
25855;BME280;13680;49.936;11.344;2024-02-26T12:10:31;95271.25;;;12.32;49.72
25855;BME280;13680;49.936;11.344;2024-02-26T12:15:33;95270.28;;;12.40;49.51
25855;BME280;13680;49.936;11.344;2024-02-26T12:18:02;95275.88;;;12.31;49.74
25855;BME280;13680;49.936;11.344;2024-02-26T12:20:28;95278.94;;;12.01;49.93
25855;BME280;13680;49.936;11.344;2024-02-26T12:22:54;95277.84;;;12.18;50.39
25855;BME280;13680;49.936;11.344;2024-02-26T12:25:25;95270.28;;;12.40;49.95
25855;BME280;13680;49.936;11.344;2024-02-26T12:27:52;95282.81;;;12.32;49.25
25855;BME280;13680;49.936;11.344;2024-02-26T12:30:18;95273.69;;;12.53;49.62
25855;BME280;13680;49.936;11.344;2024-02-26T12:32:45;95282.22;;;11.94;50.20
25855;BME280;13680;49.936;11.344;2024-02-26T12:35:11;95279.25;;;12.12;50.34
25855;BME280;13680;49.936;11.344;2024-02-26T12:37:38;95282.38;;;12.30;50.63
25855;BME280;13680;49.936;11.344;2024-02-26T12:40:08;95276.88;;;12.10;50.06
25855;BME280;13680;49.936;11.344;2024-02-26T12:42:34;95284.53;;;12.24;50.75
25855;BME280;13680;49.936;11.344;2024-02-26T12:45:09;95286.97;;;12.30;50.01
25855;BME280;13680;49.936;11.344;2024-02-26T12:47:36;95287.69;;;12.26;50.41
25855;BME280;13680;49.936;11.344;2024-02-26T12:50:03;95285.78;;;12.59;49.92
25855;BME280;13680;49.936;11.344;2024-02-26T12:52:37;95284.38;;;12.65;49.80
25855;BME280;13680;49.936;11.344;2024-02-26T12:55:03;95289.09;;;12.68;49.72